Frankton, Indiana
Current Conditions -  °F | °C
As of 1:15 AM on Tuesday 21 Oct 2014 (Local Time) from KMZZ Reporting Station
Broken Clouds Broken Clouds  
Wind Chill: 45°   Ceiling: 5000
Heat Index: 47°   Visibility: 10mi
Dew Point: 44°   Wind: 6mph
Humidity: 89%   Direction: 330°NNW
Pressure: 29.95"   Gusts: NA
Location:  40.22°N, 85.78°W
Report Text: KMZZ 210515Z AUTO 33005KT 10SM SCT040 BKN050 09/07 A2995 RMK AO2 T00860068
Loading
Personal Weather Stations






























Interactive Weather Map
Tropical Storm Tracking
New forecast layout! Learn more

10-Day Weather Forecast

Advertisements
Track Severe Weather on mobile